Terminal Aerodrome Forecast
Issued by NWS

Home | Current Version | Previous Version | Text Only | Print | Product List | Glossary On
Versions: 1 2 3 4 5 6 7 8 9 10 11 12 13 14 15 16 17 18 19 20 21 22 23 24 25 26 27 28 29 30 31 32 33 34
000
FTPA31 PHFO 061100
TAFLNY
TAF
PHNY 061138Z 0612/0712 04012G25KT P6SM VCSH SCT005 BKN050
     FM061800 04020G30KT P6SM SCT015 BKN200
     FM071000 04012G25KT P6SM SCT005
      AMD NOT SKED=

USA.gov is the U.S. government's official web portal to all federal, state and local government web resources and services.